Time;durP1;ratioP1;P1;durP2;ratioP2;P2;SDS_P1;SDS_P2;PMS_P1;PMS_P2;Temp;Humidity;BMP_temperature;BMP_pressure;BME280_temperature;BME280_humidity;BME280_pressure;Samples;Min_cycle;Max_cycle;Signal;HPM_P1;HPM_P2
2022/01/12 00:01:05;;;;;;;63.78;29.80;;;3.20;99.90;;;;;;5076287;28;20068;-66
2022/01/12 00:03:32;;;;;;;62.80;29.33;;;3.20;99.90;;;;;;5082008;28;20481;-67
2022/01/12 00:05:58;;;;;;;69.75;31.30;;;3.20;99.90;;;;;;5090922;28;20091;-67
2022/01/12 00:08:25;;;;;;;59.88;29.23;;;3.10;99.90;;;;;;5090885;28;20086;-67
2022/01/12 00:10:50;;;;;;;68.05;31.15;;;3.30;99.90;;;;;;5082405;28;20045;-67
2022/01/12 00:13:16;;;;;;;74.90;30.73;;;3.20;99.90;;;;;;5074722;28;20105;-67
2022/01/12 00:15:42;;;;;;;69.10;32.03;;;3.20;99.90;;;;;;5085900;28;20067;-67
2022/01/12 00:18:07;;;;;;;77.05;32.45;;;3.20;99.90;;;;;;5081063;28;20053;-67
2022/01/12 00:20:33;;;;;;;76.28;31.67;;;3.20;99.90;;;;;;5093761;28;20074;-67
2022/01/12 00:22:59;;;;;;;80.38;32.83;;;3.20;99.90;;;;;;5094891;28;20453;-67
2022/01/12 00:25:29;;;;;;;82.43;32.60;;;3.70;99.90;;;;;;5063467;28;20048;-67
2022/01/12 00:33:23;;;;;;;91.07;33.67;;;3.20;99.90;;;;;;5083493;28;20040;-68
2022/01/12 00:35:51;;;;;;;82.82;33.70;;;3.30;99.90;;;;;;5093311;28;20537;-67
2022/01/12 00:38:19;;;;;;;106.85;35.22;;;3.30;99.90;;;;;;5095650;28;20048;-67
2022/01/12 00:40:47;;;;;;;109.68;38.13;;;3.20;99.90;;;;;;5126519;27;20590;-67
2022/01/12 00:43:14;;;;;;;109.22;36.40;;;3.30;99.90;;;;;;5080035;28;20049;-67
2022/01/12 00:45:45;;;;;;;100.45;33.83;;;3.20;99.90;;;;;;5083485;28;20056;-67
2022/01/12 00:48:11;;;;;;;112.60;36.85;;;3.30;99.90;;;;;;5083170;28;20507;-67
2022/01/12 00:50:37;;;;;;;99.10;35.65;;;3.30;99.90;;;;;;5074012;28;20121;-68
2022/01/12 00:53:06;;;;;;;92.13;34.33;;;3.30;99.90;;;;;;5089014;28;20101;-68
2022/01/12 00:55:33;;;;;;;87.82;34.33;;;3.20;99.90;;;;;;5080708;28;20492;-67
2022/01/12 00:58:01;;;;;;;101.05;35.13;;;3.40;99.90;;;;;;5093187;28;20047;-69
2022/01/12 01:00:28;;;;;;;119.15;36.58;;;3.30;99.90;;;;;;5087234;28;20094;-67
2022/01/12 01:02:54;;;;;;;92.95;33.25;;;3.30;99.90;;;;;;5086930;28;20654;-68
2022/01/12 01:05:25;;;;;;;93.65;34.20;;;3.30;99.90;;;;;;5080901;28;20442;-67
2022/01/12 01:07:51;;;;;;;98.80;33.65;;;3.30;99.90;;;;;;5094015;28;20063;-67
2022/01/12 01:10:44;;;;;;;96.43;33.88;;;3.30;99.90;;;;;;5094338;28;20060;-68
2022/01/12 01:13:09;;;;;;;79.78;30.50;;;3.20;99.90;;;;;;5095111;28;20036;-67
2022/01/12 01:26:32;;;;;;;79.75;30.58;;;3.30;99.90;;;;;;5094098;28;20106;-68
2022/01/12 01:28:57;;;;;;;100.43;32.35;;;3.40;99.90;;;;;;5093428;28;20044;-68
2022/01/12 01:31:31;;;;;;;100.70;34.85;;;3.30;99.90;;;;;;5077228;28;20052;-67
2022/01/12 01:33:59;;;;;;;93.57;32.58;;;3.30;99.90;;;;;;5073246;28;20063;-67
2022/01/12 01:36:27;;;;;;;103.88;34.97;;;3.40;99.90;;;;;;5074842;28;20123;-66
2022/01/12 01:38:53;;;;;;;111.18;36.45;;;3.40;99.90;;;;;;5073038;28;20382;-67
2022/01/12 01:41:21;;;;;;;134.40;36.90;;;3.40;99.90;;;;;;5073802;28;20064;-67
2022/01/12 01:54:50;;;;;;;106.45;33.42;;;3.40;99.90;;;;;;5074477;28;20056;-67
2022/01/12 01:57:16;;;;;;;119.45;37.13;;;3.40;99.90;;;;;;5074295;28;20132;-66
2022/01/12 01:59:42;;;;;;;117.50;37.17;;;3.40;99.90;;;;;;5091140;28;20056;-68
2022/01/12 02:02:07;;;;;;;108.38;34.47;;;3.40;99.90;;;;;;5092436;28;20079;-67
2022/01/12 02:04:33;;;;;;;123.30;35.80;;;3.40;99.90;;;;;;5092900;28;20432;-68
2022/01/12 02:06:59;;;;;;;125.07;36.58;;;3.60;99.90;;;;;;5084087;28;20469;-67
2022/01/12 02:09:25;;;;;;;138.25;39.63;;;3.50;99.90;;;;;;5073004;28;20090;-69
2022/01/12 02:11:52;;;;;;;151.73;39.97;;;3.50;99.90;;;;;;5076996;28;20488;-68
2022/01/12 02:14:21;;;;;;;166.98;39.80;;;3.50;99.90;;;;;;5084200;28;20117;-68
2022/01/12 02:16:59;;;;;;;162.38;40.08;;;3.40;99.90;;;;;;5073342;28;20087;-68
2022/01/12 02:19:52;;;;;;;118.88;37.08;;;3.50;99.90;;;;;;5077167;28;20048;-67
2022/01/12 02:36:18;;;;;;;177.48;42.38;;;3.50;99.90;;;;;;5082116;28;20520;-68
2022/01/12 02:41:27;;;;;;;168.38;39.83;;;3.50;99.90;;;;;;5073925;28;20041;-67
2022/01/12 02:54:48;;;;;;;142.13;35.70;;;3.50;99.90;;;;;;5090024;28;20056;-67
2022/01/12 02:57:18;;;;;;;176.80;41.60;;;3.60;99.90;;;;;;5074725;28;20067;-67
2022/01/12 03:02:34;;;;;;;275.67;47.13;;;3.50;99.90;;;;;;5072782;28;20049;-66
2022/01/12 03:06:03;;;;;;;252.98;45.80;;;3.60;99.90;;;;;;5091237;28;20044;-68
2022/01/12 03:07:58;;;;;;;145.45;34.33;;;3.60;99.90;;;;;;5078283;28;20159;-67
2022/01/12 03:10:25;;;;;;;199.70;39.83;;;3.60;99.90;;;;;;5082351;28;20109;-67
2022/01/12 03:12:51;;;;;;;169.43;38.67;;;3.80;99.90;;;;;;5074504;28;20048;-67
2022/01/12 03:15:16;;;;;;;296.20;46.83;;;3.60;99.90;;;;;;5055440;28;20101;-67
2022/01/12 03:17:42;;;;;;;277.67;46.78;;;3.70;99.90;;;;;;5076601;28;20101;-67
2022/01/12 03:20:09;;;;;;;271.15;46.63;;;3.60;99.90;;;;;;5073909;28;20087;-67
2022/01/12 03:22:34;;;;;;;190.65;39.45;;;3.60;99.90;;;;;;5071198;28;20048;-68
2022/01/12 03:25:09;;;;;;;297.05;46.78;;;3.60;99.90;;;;;;5071593;28;20071;-67
2022/01/12 03:27:35;;;;;;;179.52;40.60;;;3.60;99.90;;;;;;5072309;28;20194;-67
2022/01/12 03:30:04;;;;;;;184.65;41.05;;;3.60;99.90;;;;;;5090964;28;20115;-68
2022/01/12 03:32:40;;;;;;;195.20;41.33;;;3.60;99.90;;;;;;5091713;28;20044;-67
2022/01/12 03:35:11;;;;;;;138.27;36.25;;;3.60;99.90;;;;;;5083248;28;20053;-68
2022/01/12 03:40:05;;;;;;;188.82;43.42;;;3.70;99.90;;;;;;5070952;28;20052;-68
2022/01/12 03:42:31;;;;;;;171.93;39.22;;;3.70;99.90;;;;;;5054749;28;20055;-67
2022/01/12 03:44:57;;;;;;;156.75;38.90;;;3.70;99.90;;;;;;5072400;28;20127;-66
2022/01/12 03:47:22;;;;;;;177.88;41.28;;;3.70;99.90;;;;;;5081441;28;20052;-68
2022/01/12 03:49:48;;;;;;;171.85;40.70;;;3.80;99.90;;;;;;5082213;28;20055;-67
2022/01/12 03:52:14;;;;;;;154.75;38.40;;;3.70;99.90;;;;;;5062796;28;20492;-67
2022/01/12 03:54:40;;;;;;;192.55;44.78;;;3.70;99.90;;;;;;5092813;28;20105;-68
2022/01/12 03:57:06;;;;;;;195.40;41.92;;;3.80;99.90;;;;;;5091946;28;20052;-67
2022/01/12 03:59:31;;;;;;;205.50;43.15;;;3.70;99.90;;;;;;5091413;28;20084;-67
2022/01/12 04:01:57;;;;;;;187.27;40.25;;;3.70;99.90;;;;;;5073839;28;20480;-68
2022/01/12 04:04:31;;;;;;;248.40;43.90;;;3.70;99.90;;;;;;5075448;28;20056;-67
2022/01/12 04:09:42;;;;;;;223.50;43.90;;;3.70;99.90;;;;;;5072782;28;20051;-68
2022/01/12 04:12:08;;;;;;;171.13;38.20;;;3.70;99.90;;;;;;5075595;28;20055;-69
2022/01/12 04:14:34;;;;;;;125.40;36.30;;;3.70;99.90;;;;;;5091395;28;20063;-66
2022/01/12 04:16:59;;;;;;;231.02;45.78;;;3.70;99.90;;;;;;5090675;28;20048;-67
2022/01/12 04:19:27;;;;;;;173.40;38.83;;;3.90;99.90;;;;;;5090356;28;20160;-67
2022/01/12 04:21:53;;;;;;;191.40;40.53;;;3.70;99.90;;;;;;5082975;28;20059;-66
2022/01/12 04:24:18;;;;;;;129.15;36.00;;;3.60;99.90;;;;;;5078233;28;20052;-67
2022/01/12 04:26:44;;;;;;;186.95;40.22;;;3.60;99.90;;;;;;5071091;28;20120;-67
2022/01/12 04:29:10;;;;;;;206.18;41.30;;;3.60;99.90;;;;;;5085518;28;20052;-67
2022/01/12 04:31:36;;;;;;;247.57;45.47;;;3.60;99.90;;;;;;5090237;28;20102;-68
2022/01/12 04:34:04;;;;;;;209.60;43.60;;;3.60;99.90;;;;;;5091215;28;20094;-68
2022/01/12 04:36:29;;;;;;;232.65;45.22;;;3.60;99.90;;;;;;5090614;28;20059;-68
2022/01/12 04:38:55;;;;;;;242.68;45.30;;;3.60;99.90;;;;;;5060151;28;20056;-67
2022/01/12 04:41:24;;;;;;;213.63;41.45;;;3.50;99.90;;;;;;5071221;28;20052;-69
2022/01/12 04:43:53;;;;;;;265.83;47.78;;;3.30;99.90;;;;;;5072442;28;20412;-66
2022/01/12 04:46:27;;;;;;;213.20;43.88;;;3.40;99.90;;;;;;5072839;28;20060;-67
2022/01/12 04:51:19;;;;;;;131.40;34.03;;;3.40;99.90;;;;;;5086486;28;20060;-67
2022/01/12 04:53:45;;;;;;;213.95;41.90;;;3.40;99.90;;;;;;5070701;28;20568;-67
2022/01/12 04:56:10;;;;;;;173.40;40.50;;;3.30;99.90;;;;;;5084655;28;20097;-67
2022/01/12 04:58:36;;;;;;;190.48;38.58;;;3.50;99.90;;;;;;5092188;28;20048;-66
2022/01/12 05:01:09;;;;;;;125.22;34.88;;;3.30;99.90;;;;;;5089997;28;20102;-67
2022/01/12 05:06:37;;;;;;;217.23;39.15;;;3.40;99.90;;;;;;5089672;28;20052;-68
2022/01/12 05:09:39;;;;;;;431.02;52.88;;;3.10;99.90;;;;;;5074154;28;20151;-68
2022/01/12 05:14:51;;;;;;;411.25;47.45;;;3.00;99.90;;;;;;5075738;28;20053;-67
2022/01/12 05:17:16;;;;;;;439.17;45.25;;;2.80;99.90;;;;;;5073803;28;20052;-68
2022/01/12 05:19:42;;;;;;;630.47;64.22;;;2.90;99.90;;;;;;5084018;28;20051;-67
2022/01/12 05:22:08;;;;;;;650.58;67.05;;;3.00;99.90;;;;;;5092971;28;20088;-68
2022/01/12 05:24:34;;;;;;;640.17;62.92;;;2.90;99.90;;;;;;5094082;28;20044;-66
2022/01/12 05:26:59;;;;;;;565.55;58.20;;;3.40;99.90;;;;;;5091333;28;20055;-65
2022/01/12 05:29:25;;;;;;;527.00;54.97;;;2.70;99.90;;;;;;5090940;28;20369;-67
2022/01/12 05:31:51;;;;;;;542.50;60.30;;;2.70;99.90;;;;;;5073153;28;20053;-67
2022/01/12 05:34:16;;;;;;;261.20;38.88;;;2.60;99.90;;;;;;5075654;28;20096;-67
2022/01/12 05:36:42;;;;;;;431.30;51.47;;;2.50;99.90;;;;;;5095079;28;20119;-66
2022/01/12 05:39:07;;;;;;;285.50;40.50;;;2.80;99.90;;;;;;5082561;28;20064;-66
2022/01/12 05:41:33;;;;;;;381.50;49.45;;;2.80;99.90;;;;;;5090623;28;20044;-66
2022/01/12 05:43:59;;;;;;;292.52;42.38;;;2.80;99.90;;;;;;5086909;28;20076;-66
2022/01/12 05:46:31;;;;;;;284.63;38.15;;;2.80;99.90;;;;;;5072729;28;20049;-68
2022/01/12 05:51:44;;;;;;;362.83;43.97;;;2.90;99.90;;;;;;5075258;28;20090;-67
2022/01/12 05:54:09;;;;;;;178.43;30.58;;;2.90;99.90;;;;;;5094545;28;20520;-66
2022/01/12 05:56:35;;;;;;;479.13;53.97;;;3.30;99.90;;;;;;5074291;28;20044;-66
2022/01/12 05:59:00;;;;;;;443.08;50.38;;;2.80;99.90;;;;;;5087860;28;20086;-66
2022/01/12 06:01:27;;;;;;;385.52;43.33;;;2.80;99.90;;;;;;5083494;28;20048;-67
2022/01/12 06:03:53;;;;;;;506.65;51.03;;;2.70;99.90;;;;;;5073406;28;20080;-67
2022/01/12 06:06:19;;;;;;;357.95;41.00;;;2.70;99.90;;;;;;5092313;28;20090;-67
2022/01/12 06:08:46;;;;;;;406.30;41.67;;;2.70;99.90;;;;;;5095007;28;20448;-65
2022/01/12 06:11:12;;;;;;;411.27;44.50;;;2.60;99.90;;;;;;5092714;28;20065;-67
2022/01/12 06:13:37;;;;;;;431.33;46.63;;;2.60;99.90;;;;;;5081572;28;20052;-66
2022/01/12 06:16:03;;;;;;;316.13;35.55;;;2.60;99.90;;;;;;5102996;28;20106;-66
2022/01/12 06:18:29;;;;;;;241.65;28.85;;;2.60;99.90;;;;;;5073857;28;20049;-66
2022/01/12 06:20:54;;;;;;;285.25;33.28;;;2.60;99.90;;;;;;5072563;28;20045;-66
2022/01/12 06:23:20;;;;;;;376.55;39.00;;;2.60;99.90;;;;;;5088395;28;20126;-66
2022/01/12 06:25:45;;;;;;;311.45;40.35;;;2.60;99.90;;;;;;5072755;28;20051;-66
2022/01/12 06:33:33;;;;;;;241.80;35.58;;;2.60;99.90;;;;;;5092510;28;20065;-66
2022/01/12 06:35:58;;;;;;;155.93;28.13;;;2.60;99.90;;;;;;5091888;28;20094;-67
2022/01/12 06:38:24;;;;;;;359.40;46.20;;;2.40;99.90;;;;;;5093615;28;20349;-67
2022/01/12 06:40:50;;;;;;;427.25;47.42;;;2.40;99.90;;;;;;5087252;28;20056;-66
2022/01/12 06:43:16;;;;;;;275.17;31.48;;;2.40;99.90;;;;;;5076438;28;20101;-66
2022/01/12 06:45:42;;;;;;;468.10;45.85;;;2.30;99.90;;;;;;5091167;28;20044;-67
2022/01/12 06:48:07;;;;;;;143.82;22.42;;;2.30;99.90;;;;;;5078633;28;20179;-66
2022/01/12 06:50:33;;;;;;;435.90;40.75;;;2.10;99.90;;;;;;5063311;28;20190;-66
2022/01/12 06:52:58;;;;;;;342.00;31.90;;;2.20;99.90;;;;;;5090828;28;20048;-66
2022/01/12 06:55:25;;;;;;;308.10;33.00;;;2.10;99.90;;;;;;5082356;28;20052;-68
2022/01/12 06:57:51;;;;;;;257.95;29.15;;;2.30;99.90;;;;;;5079706;28;20049;-67
2022/01/12 07:00:17;;;;;;;417.08;38.63;;;2.20;99.90;;;;;;5087278;28;20098;-66
2022/01/12 07:02:47;;;;;;;321.35;33.67;;;2.20;99.90;;;;;;5090940;28;20130;-67
2022/01/12 07:05:13;;;;;;;239.90;27.33;;;2.20;99.90;;;;;;5091369;28;20052;-67
2022/01/12 07:07:38;;;;;;;172.20;22.77;;;2.40;99.90;;;;;;5092233;28;20060;-68
2022/01/12 07:10:04;;;;;;;174.70;21.38;;;2.10;99.90;;;;;;5092435;28;20094;-67
2022/01/12 07:12:30;;;;;;;400.95;40.50;;;2.10;99.90;;;;;;5069384;28;20051;-66
2022/01/12 07:14:55;;;;;;;252.82;29.95;;;2.00;99.90;;;;;;5079649;28;20044;-67
2022/01/12 07:17:21;;;;;;;181.65;27.08;;;2.10;99.90;;;;;;5076281;28;20408;-67
2022/01/12 07:19:46;;;;;;;196.55;31.63;;;2.10;99.90;;;;;;5071489;28;20455;-68
2022/01/12 07:22:12;;;;;;;183.50;28.63;;;2.20;99.90;;;;;;5072494;28;20080;-66
2022/01/12 07:24:37;;;;;;;106.10;23.00;;;2.30;99.90;;;;;;5071913;28;20040;-67
2022/01/12 07:27:03;;;;;;;161.63;29.48;;;2.20;99.90;;;;;;5071824;28;20082;-66
2022/01/12 07:29:29;;;;;;;82.60;21.75;;;2.20;99.90;;;;;;5078113;28;20040;-67
2022/01/12 07:31:54;;;;;;;97.65;26.05;;;2.20;99.90;;;;;;5077263;28;20477;-67
2022/01/12 07:34:20;;;;;;;52.83;18.42;;;2.20;99.90;;;;;;5087612;28;20236;-68
2022/01/12 07:36:46;;;;;;;69.72;22.40;;;2.20;99.90;;;;;;5079123;28;20466;-68
2022/01/12 07:39:11;;;;;;;57.22;21.75;;;2.20;99.90;;;;;;5088782;28;20055;-72
2022/01/12 07:41:38;;;;;;;86.15;25.38;;;2.20;99.90;;;;;;5078921;28;20055;-67
2022/01/12 07:44:04;;;;;;;81.97;23.70;;;2.30;99.90;;;;;;5073105;28;20057;-68
2022/01/12 07:46:29;;;;;;;68.07;21.70;;;2.40;99.90;;;;;;5070937;28;20515;-67
2022/01/12 07:48:55;;;;;;;71.63;22.40;;;2.40;99.90;;;;;;5055237;28;20052;-68
2022/01/12 07:51:21;;;;;;;65.40;22.08;;;2.20;99.90;;;;;;5077173;28;20377;-68
2022/01/12 07:53:46;;;;;;;74.13;26.75;;;2.30;99.90;;;;;;5090926;28;20044;-67
2022/01/12 07:56:12;;;;;;;169.30;66.53;;;2.50;99.90;;;;;;5093156;28;20543;-66
2022/01/12 07:58:38;;;;;;;158.63;77.50;;;2.30;99.90;;;;;;5091853;28;20044;-68
2022/01/12 08:01:04;;;;;;;188.00;70.22;;;2.20;99.90;;;;;;5074817;28;20396;-67
2022/01/12 08:03:29;;;;;;;93.32;42.75;;;2.10;99.90;;;;;;5071732;28;20067;-67
2022/01/12 08:05:56;;;;;;;64.60;25.02;;;2.00;99.90;;;;;;5071568;28;20059;-68
2022/01/12 08:08:22;;;;;;;53.22;20.20;;;2.10;99.90;;;;;;5073081;28;20427;-68
2022/01/12 08:10:48;;;;;;;46.42;19.02;;;2.00;99.90;;;;;;5071352;28;20098;-68
2022/01/12 08:13:14;;;;;;;67.70;22.10;;;1.80;99.90;;;;;;5082666;28;20044;-66
2022/01/12 08:15:39;;;;;;;151.23;29.38;;;1.80;99.90;;;;;;5091877;28;20089;-67
2022/01/12 08:18:05;;;;;;;102.25;22.52;;;1.80;99.90;;;;;;5092494;28;20056;-67
2022/01/12 08:20:31;;;;;;;97.85;23.05;;;1.80;99.90;;;;;;5092776;28;20242;-68
2022/01/12 08:22:57;;;;;;;237.02;30.73;;;1.80;99.90;;;;;;5091123;28;20130;-67
2022/01/12 08:25:23;;;;;;;131.60;21.27;;;1.80;99.90;;;;;;5091535;28;20045;-68
2022/01/12 08:27:48;;;;;;;311.42;37.75;;;1.90;99.90;;;;;;5091482;28;20071;-68
2022/01/12 08:30:19;;;;;;;217.77;29.40;;;1.90;99.90;;;;;;5092108;28;20527;-67
2022/01/12 08:32:46;;;;;;;181.98;25.30;;;2.00;99.90;;;;;;5093619;28;20377;-67
2022/01/12 08:35:12;;;;;;;127.35;25.90;;;2.10;99.90;;;;;;5095530;28;20044;-67
2022/01/12 08:37:38;;;;;;;107.60;28.67;;;2.20;99.90;;;;;;5086062;28;20052;-67
2022/01/12 08:40:05;;;;;;;88.93;35.53;;;2.30;99.90;;;;;;5095302;28;20394;-68
2022/01/12 08:42:30;;;;;;;98.57;31.65;;;2.40;99.90;;;;;;5094915;28;20071;-67
2022/01/12 08:44:59;;;;;;;78.88;27.83;;;2.50;99.90;;;;;;5095411;28;20476;-68
2022/01/12 08:47:25;;;;;;;81.80;27.92;;;2.50;99.90;;;;;;5095857;28;20055;-68
2022/01/12 08:49:51;;;;;;;86.57;24.95;;;2.60;99.90;;;;;;5096714;28;20407;-67
2022/01/12 08:52:16;;;;;;;79.20;25.70;;;2.70;99.90;;;;;;5085609;28;20048;-67
2022/01/12 08:54:42;;;;;;;83.03;24.02;;;2.80;99.90;;;;;;5076751;28;20055;-68
2022/01/12 08:57:08;;;;;;;84.97;22.77;;;2.90;99.90;;;;;;5084975;28;20071;-68
2022/01/12 08:59:33;;;;;;;82.85;22.05;;;3.00;99.90;;;;;;5115882;28;20059;-68
2022/01/12 09:01:59;;;;;;;80.95;21.77;;;3.10;99.90;;;;;;5116230;28;20059;-67
2022/01/12 09:04:26;;;;;;;75.55;21.95;;;3.30;99.90;;;;;;5116890;28;20057;-67
2022/01/12 09:06:51;;;;;;;68.72;22.98;;;3.30;99.90;;;;;;5115573;27;20051;-68
2022/01/12 09:09:17;;;;;;;78.53;21.95;;;3.40;99.90;;;;;;5116630;28;20051;-67
2022/01/12 09:11:42;;;;;;;82.13;23.90;;;3.50;99.90;;;;;;5116290;28;20060;-67
2022/01/12 09:14:08;;;;;;;69.18;19.52;;;3.60;99.90;;;;;;5114891;28;20483;-67
2022/01/12 09:16:34;;;;;;;85.00;21.20;;;3.60;99.90;;;;;;5114242;28;20051;-67
2022/01/12 09:18:59;;;;;;;85.13;20.50;;;3.60;99.90;;;;;;5116128;28;20066;-67
2022/01/12 09:21:25;;;;;;;100.80;21.98;;;3.60;99.90;;;;;;5111769;28;20050;-67
2022/01/12 09:23:51;;;;;;;81.45;20.25;;;3.70;99.90;;;;;;5095707;28;20586;-68
2022/01/12 09:26:16;;;;;;;103.57;20.85;;;3.70;99.90;;;;;;5095618;28;20135;-68
2022/01/12 09:28:42;;;;;;;80.07;19.67;;;3.80;99.90;;;;;;5095823;28;20051;-67
2022/01/12 09:31:08;;;;;;;67.15;18.30;;;3.70;99.90;;;;;;5093857;28;20126;-68
2022/01/12 09:33:34;;;;;;;72.38;19.65;;;3.80;99.90;;;;;;5095391;28;20472;-68
2022/01/12 09:35:59;;;;;;;74.88;19.73;;;3.80;99.90;;;;;;5093908;28;20055;-67
2022/01/12 09:38:25;;;;;;;75.55;20.65;;;3.90;99.90;;;;;;5094202;28;20135;-67
2022/01/12 09:40:52;;;;;;;66.75;20.27;;;3.90;99.90;;;;;;5094376;28;20060;-67
2022/01/12 09:43:18;;;;;;;80.25;20.10;;;4.00;99.90;;;;;;5093559;28;20101;-67
2022/01/12 09:45:49;;;;;;;67.40;20.65;;;4.00;99.90;;;;;;5093609;28;20047;-67
2022/01/12 09:48:16;;;;;;;67.80;21.75;;;4.10;99.90;;;;;;5095367;28;20058;-67
2022/01/12 09:50:41;;;;;;;59.53;18.90;;;4.20;99.90;;;;;;5095677;28;20149;-67
2022/01/12 09:53:07;;;;;;;60.17;19.25;;;4.20;99.90;;;;;;5093730;28;20408;-67
2022/01/12 09:55:33;;;;;;;58.50;16.88;;;4.30;99.90;;;;;;5094474;28;20052;-67
2022/01/12 09:57:58;;;;;;;60.45;17.67;;;4.40;99.90;;;;;;5095178;28;20055;-67
2022/01/12 10:00:26;;;;;;;55.13;15.70;;;4.50;99.90;;;;;;5093846;28;20467;-68
2022/01/12 10:02:52;;;;;;;54.17;15.07;;;4.50;99.90;;;;;;5094542;28;20064;-68
2022/01/12 10:05:27;;;;;;;55.45;15.27;;;4.70;99.90;;;;;;5093802;28;20143;-67
2022/01/12 10:07:53;;;;;;;49.80;14.52;;;4.70;99.90;;;;;;5094621;28;20169;-68
2022/01/12 10:10:18;;;;;;;52.63;15.68;;;4.80;99.90;;;;;;5094842;28;20087;-67
2022/01/12 10:12:54;;;;;;;49.88;12.48;;;4.80;99.90;;;;;;5093306;28;20048;-68
2022/01/12 10:15:20;;;;;;;44.70;13.05;;;4.90;99.90;;;;;;5094822;28;20130;-67
2022/01/12 10:17:46;;;;;;;44.75;11.68;;;5.00;99.90;;;;;;5092961;28;20055;-69
2022/01/12 10:20:21;;;;;;;42.65;12.70;;;5.00;99.90;;;;;;5096563;28;20052;-67
2022/01/12 10:23:10;;;;;;;50.45;11.63;;;5.00;99.90;;;;;;5114703;28;20057;-67
2022/01/12 10:25:37;;;;;;;45.35;12.50;;;5.10;99.90;;;;;;5114871;28;20039;-68
2022/01/12 10:28:19;;;;;;;45.15;12.43;;;5.20;99.90;;;;;;5114724;28;20444;-67
2022/01/12 10:30:57;;;;;;;38.33;12.48;;;5.20;99.90;;;;;;5114223;28;20183;-67
2022/01/12 10:33:28;;;;;;;38.50;10.93;;;5.30;99.90;;;;;;5113470;28;20047;-69
2022/01/12 10:35:56;;;;;;;40.95;11.10;;;5.30;99.90;;;;;;5103730;28;20079;-68
2022/01/12 10:38:22;;;;;;;37.55;11.52;;;5.30;99.90;;;;;;5094114;28;20403;-67
2022/01/12 10:40:52;;;;;;;47.67;12.60;;;5.40;99.90;;;;;;5092883;28;20056;-68
2022/01/12 10:43:32;;;;;;;41.30;10.45;;;5.30;99.90;;;;;;5094335;28;20048;-67
2022/01/12 10:46:01;;;;;;;46.60;10.27;;;5.40;99.90;;;;;;5092442;28;20280;-68
2022/01/12 10:48:38;;;;;;;45.60;12.10;;;5.40;99.90;;;;;;5093035;28;20078;-68
2022/01/12 10:51:04;;;;;;;44.63;12.30;;;5.50;99.90;;;;;;5092281;28;20051;-67
2022/01/12 10:53:33;;;;;;;39.10;12.00;;;5.40;99.90;;;;;;5089896;28;20052;-69
2022/01/12 10:56:13;;;;;;;44.65;11.27;;;5.50;99.90;;;;;;5091914;28;20048;-68
2022/01/12 10:58:42;;;;;;;46.50;12.82;;;5.50;99.90;;;;;;5092322;28;20055;-69
2022/01/12 11:01:08;;;;;;;43.55;14.30;;;5.50;99.90;;;;;;5092248;28;20400;-67
2022/01/12 11:03:34;;;;;;;42.42;11.13;;;5.50;99.90;;;;;;5090053;28;20055;-68
2022/01/12 11:06:00;;;;;;;41.08;11.52;;;5.50;99.90;;;;;;5106889;28;20044;-68
2022/01/12 11:08:27;;;;;;;36.90;10.82;;;5.50;99.90;;;;;;5092778;28;20079;-66
2022/01/12 11:10:55;;;;;;;36.65;11.55;;;5.60;99.90;;;;;;5092412;28;20052;-67
2022/01/12 11:13:21;;;;;;;35.75;11.10;;;5.50;99.90;;;;;;5093631;28;20134;-68
2022/01/12 11:15:48;;;;;;;39.08;11.38;;;5.60;99.90;;;;;;5091530;28;20052;-68
2022/01/12 11:18:15;;;;;;;38.20;11.05;;;5.60;99.90;;;;;;5092513;28;20074;-68
2022/01/12 11:20:43;;;;;;;38.88;10.63;;;5.60;99.90;;;;;;5082512;28;20044;-68
2022/01/12 11:23:12;;;;;;;35.10;10.30;;;5.60;99.90;;;;;;5080146;28;20063;-68
2022/01/12 11:25:42;;;;;;;36.08;10.38;;;5.70;99.90;;;;;;5106275;28;20056;-68
2022/01/12 11:28:23;;;;;;;33.58;9.43;;;5.70;99.90;;;;;;5082729;28;20055;-69
2022/01/12 11:30:53;;;;;;;41.25;11.20;;;5.60;99.90;;;;;;5073850;28;20056;-67
2022/01/12 11:33:34;;;;;;;33.22;9.40;;;5.60;99.90;;;;;;5090958;28;20052;-67
2022/01/12 11:36:03;;;;;;;27.25;8.35;;;5.70;99.90;;;;;;5092990;28;20052;-68
2022/01/12 11:38:31;;;;;;;21.70;6.43;;;5.60;99.90;;;;;;5090853;28;20143;-68
2022/01/12 11:41:10;;;;;;;20.13;6.68;;;5.60;99.90;;;;;;5092967;28;20055;-68
2022/01/12 11:43:51;;;;;;;40.72;6.40;;;5.60;99.90;;;;;;5094975;28;20132;-68
2022/01/12 11:46:20;;;;;;;23.83;7.55;;;5.50;99.90;;;;;;5112227;28;20048;-68
2022/01/12 11:48:57;;;;;;;19.77;6.53;;;5.50;99.90;;;;;;5102194;28;20542;-69
2022/01/12 11:51:37;;;;;;;25.33;6.82;;;5.50;99.90;;;;;;5079066;28;20057;-68
2022/01/12 11:54:15;;;;;;;37.28;7.50;;;5.60;99.90;;;;;;5071956;28;20080;-68
2022/01/12 11:56:57;;;;;;;30.58;8.07;;;5.60;99.90;;;;;;5073056;28;20044;-69
2022/01/12 11:59:26;;;;;;;31.75;7.78;;;5.60;99.90;;;;;;5072559;28;20467;-68
2022/01/12 12:02:12;;;;;;;26.10;7.70;;;5.60;99.90;;;;;;5081605;28;20115;-69
2022/01/12 12:04:38;;;;;;;20.75;6.90;;;5.60;99.90;;;;;;5104232;28;20055;-68
2022/01/12 12:07:14;;;;;;;28.52;6.35;;;5.60;99.90;;;;;;5092950;28;20067;-68
2022/01/12 12:09:48;;;;;;;24.65;6.60;;;5.60;99.90;;;;;;5093739;28;20098;-68
2022/01/12 12:12:34;;;;;;;27.63;7.15;;;5.60;99.90;;;;;;5117477;28;20051;-68
2022/01/12 12:15:07;;;;;;;30.95;9.35;;;5.60;99.90;;;;;;5117876;27;20043;-68
2022/01/12 12:17:34;;;;;;;31.83;8.85;;;5.60;99.90;;;;;;5115811;28;20463;-68
2022/01/12 12:20:01;;;;;;;40.80;11.23;;;5.60;99.90;;;;;;5107172;28;20062;-68
2022/01/12 12:22:29;;;;;;;34.58;8.85;;;5.70;99.90;;;;;;5116184;28;20044;-68
2022/01/12 12:24:58;;;;;;;30.63;9.00;;;5.70;99.90;;;;;;5116147;28;20093;-69
2022/01/12 12:27:26;;;;;;;36.00;9.80;;;5.70;99.90;;;;;;5115905;28;20059;-67
2022/01/12 12:29:52;;;;;;;32.95;8.95;;;5.70;99.90;;;;;;5116014;28;20063;-69
2022/01/12 12:32:42;;;;;;;33.85;11.82;;;5.80;99.90;;;;;;5113605;28;20559;-68
2022/01/12 12:35:11;;;;;;;30.05;10.70;;;5.80;99.90;;;;;;5095891;28;20404;-68
2022/01/12 12:37:41;;;;;;;38.08;11.82;;;5.70;99.90;;;;;;5095342;28;20496;-68
2022/01/12 12:40:26;;;;;;;31.30;11.45;;;5.80;99.90;;;;;;5095026;28;20395;-69
2022/01/12 12:43:22;;;;;;;29.20;11.75;;;5.70;99.90;;;;;;5094779;28;20052;-68
2022/01/12 12:45:56;;;;;;;31.52;12.13;;;5.70;99.90;;;;;;5077452;28;20040;-67
2022/01/12 12:48:25;;;;;;;32.10;12.13;;;5.70;99.90;;;;;;5106968;28;20046;-68
2022/01/12 12:51:12;;;;;;;30.48;12.00;;;5.70;99.90;;;;;;5115039;28;20048;-69
2022/01/12 12:53:52;;;;;;;24.02;8.75;;;5.70;99.90;;;;;;5087329;28;20492;-69
2022/01/12 12:56:21;;;;;;;27.35;9.38;;;5.80;99.90;;;;;;5074516;28;20102;-67
2022/01/12 12:58:55;;;;;;;25.55;9.25;;;5.70;99.90;;;;;;5074635;28;20494;-68
2022/01/12 13:01:26;;;;;;;20.38;8.32;;;5.80;99.90;;;;;;5092638;28;20056;-69
2022/01/12 13:03:57;;;;;;;22.25;8.43;;;5.70;99.90;;;;;;5105555;28;20048;-68
2022/01/12 13:06:35;;;;;;;19.60;8.80;;;5.70;99.90;;;;;;5115343;28;20056;-69
2022/01/12 13:09:10;;;;;;;22.77;8.60;;;5.80;99.90;;;;;;5116236;28;20050;-68
2022/01/12 13:11:44;;;;;;;21.13;8.23;;;5.70;99.90;;;;;;5115223;28;20043;-68
2022/01/12 13:14:12;;;;;;;20.60;8.48;;;5.70;99.90;;;;;;5107952;28;20059;-68
2022/01/12 13:16:52;;;;;;;17.92;7.85;;;5.70;99.90;;;;;;5093486;28;20519;-68
2022/01/12 13:22:30;;;;;;;18.60;7.88;;;5.70;99.90;;;;;;5116126;28;20123;-68
2022/01/12 13:24:57;;;;;;;17.67;7.90;;;5.60;99.90;;;;;;5114921;28;20043;-69
2022/01/12 13:27:24;;;;;;;15.52;6.47;;;5.60;99.90;;;;;;5088659;28;20063;-69
2022/01/12 13:29:51;;;;;;;19.20;9.05;;;5.50;99.90;;;;;;5075558;28;20052;-68
2022/01/12 13:32:17;;;;;;;25.08;9.55;;;5.50;99.90;;;;;;5076275;28;20052;-68
2022/01/12 13:35:09;;;;;;;17.13;9.38;;;5.50;99.90;;;;;;5097461;28;20480;-68
2022/01/12 13:37:38;;;;;;;20.63;7.80;;;5.40;99.90;;;;;;5114367;28;20449;-68
2022/01/12 13:40:08;;;;;;;32.35;13.88;;;5.30;99.90;;;;;;5105769;28;20060;-68
2022/01/12 13:42:53;;;;;;;16.70;8.30;;;5.30;99.90;;;;;;5112927;28;20062;-67
2022/01/12 13:45:43;;;;;;;28.58;10.07;;;5.30;99.90;;;;;;5075600;28;20044;-68
2022/01/12 13:48:15;;;;;;;21.60;9.02;;;5.20;99.90;;;;;;5093280;28;20044;-70
2022/01/12 13:50:52;;;;;;;22.83;10.48;;;5.20;99.90;;;;;;5095073;28;20452;-68
2022/01/12 13:53:19;;;;;;;22.63;9.95;;;5.20;99.90;;;;;;5095205;28;20059;-68
2022/01/12 13:55:53;;;;;;;30.63;12.48;;;5.20;99.90;;;;;;5094663;28;20471;-67
2022/01/12 13:58:29;;;;;;;19.90;9.60;;;5.20;99.90;;;;;;5095110;28;20066;-67
2022/01/12 14:01:11;;;;;;;21.38;9.02;;;5.20;99.90;;;;;;5094741;28;20048;-69
2022/01/12 14:03:56;;;;;;;24.48;9.63;;;5.20;99.90;;;;;;5086950;28;20048;-67